createdAt,value
2022-08-17T00:01:57.511Z,23.92
2022-08-17T00:04:05.944Z,23.89
2022-08-17T00:06:19.687Z,23.85
2022-08-17T00:08:25.472Z,23.81
2022-08-17T00:10:27.565Z,23.78
2022-08-17T00:12:42.620Z,23.75
2022-08-17T00:14:45.377Z,23.70
2022-08-17T00:16:56.739Z,23.67
2022-08-17T00:19:07.707Z,23.63
2022-08-17T00:21:11.768Z,23.60
2022-08-17T00:23:16.657Z,23.55
2022-08-17T00:25:20.294Z,23.53
2022-08-17T00:27:22.013Z,23.50
2022-08-17T00:29:23.496Z,23.47
2022-08-17T00:31:25.484Z,23.43
2022-08-17T00:33:29.791Z,23.41
2022-08-17T00:35:31.690Z,23.36
2022-08-17T00:37:33.302Z,23.34
2022-08-17T00:39:34.947Z,23.31
2022-08-17T00:41:36.648Z,23.29
2022-08-17T00:44:00.928Z,23.23
2022-08-17T00:46:08.169Z,23.20
2022-08-17T00:48:11.548Z,23.16
2022-08-17T00:50:31.726Z,23.12
2022-08-17T00:52:39.520Z,23.10
2022-08-17T00:54:43.398Z,23.07
2022-08-17T00:56:51.193Z,23.04
2022-08-17T00:58:54.710Z,23.02
2022-08-17T01:00:56.785Z,22.99
2022-08-17T01:03:02.998Z,22.96
2022-08-17T01:05:06.760Z,22.92
2022-08-17T01:07:12.326Z,22.89
2022-08-17T01:09:15.619Z,22.85
2022-08-17T01:11:17.579Z,22.83
2022-08-17T01:13:20.747Z,22.81
2022-08-17T01:15:22.976Z,22.77
2022-08-17T01:17:24.643Z,22.75
2022-08-17T01:19:34.505Z,22.72
2022-08-17T01:21:50.290Z,22.69
2022-08-17T01:23:52.093Z,22.66
2022-08-17T01:25:57.258Z,22.64
2022-08-17T01:27:59.222Z,22.60
2022-08-17T01:30:05.628Z,22.57
2022-08-17T01:32:28.787Z,22.54
2022-08-17T01:34:42.773Z,22.51
2022-08-17T01:36:49.928Z,22.48
2022-08-17T01:38:51.539Z,22.45
2022-08-17T01:40:59.044Z,22.43
2022-08-17T01:43:07.309Z,22.40
2022-08-17T01:45:15.205Z,22.39
2022-08-17T01:47:16.752Z,22.36
2022-08-17T01:49:19.639Z,22.34
2022-08-17T01:51:21.671Z,22.32
2022-08-17T01:53:27.992Z,22.29
2022-08-17T01:55:39.822Z,22.26
2022-08-17T01:57:41.420Z,22.24
2022-08-17T01:59:43.174Z,22.22
2022-08-17T02:01:45.009Z,22.22
2022-08-17T02:03:56.170Z,22.18
2022-08-17T02:06:03.081Z,22.16
2022-08-17T02:08:07.434Z,22.13
2022-08-17T02:10:16.668Z,22.11
2022-08-17T02:12:38.172Z,22.10
2022-08-17T02:14:41.427Z,22.06
2022-08-17T02:16:43.335Z,22.04
2022-08-17T02:18:46.372Z,22.02
2022-08-17T02:20:48.004Z,22.01
2022-08-17T02:22:50.551Z,21.99
2022-08-17T02:25:01.018Z,21.98
2022-08-17T02:27:04.525Z,21.96
2022-08-17T02:29:06.205Z,21.94
2022-08-17T02:31:11.376Z,21.92
2022-08-17T02:33:13.003Z,21.91
2022-08-17T02:35:15.023Z,21.90
2022-08-17T02:37:21.053Z,21.88
2022-08-17T02:39:22.837Z,21.86
2022-08-17T02:41:24.484Z,21.85
2022-08-17T02:43:27.573Z,21.84
2022-08-17T02:45:29.524Z,21.83
2022-08-17T02:47:31.318Z,21.81
2022-08-17T02:49:32.858Z,21.79
2022-08-17T02:51:35.270Z,21.78
2022-08-17T02:53:36.903Z,21.76
2022-08-17T02:55:43.000Z,21.74
2022-08-17T02:57:44.757Z,21.71
2022-08-17T02:59:49.018Z,21.70
2022-08-17T03:01:51.107Z,21.67
2022-08-17T03:03:52.679Z,21.66
2022-08-17T03:05:54.265Z,21.63
2022-08-17T03:07:56.425Z,21.61
2022-08-17T03:09:57.943Z,21.58
2022-08-17T03:12:14.343Z,21.55
2022-08-17T03:14:15.887Z,21.52
2022-08-17T03:16:17.575Z,21.52
2022-08-17T03:18:25.735Z,21.50
2022-08-17T03:20:30.195Z,21.49
2022-08-17T03:22:47.940Z,21.48
2022-08-17T03:24:56.411Z,21.45
2022-08-17T03:26:57.946Z,21.46
2022-08-17T03:28:59.515Z,21.44
2022-08-17T03:31:01.195Z,21.44
2022-08-17T03:33:05.870Z,21.43
2022-08-17T03:35:09.588Z,21.41
2022-08-17T03:37:14.857Z,21.40
2022-08-17T03:39:16.309Z,21.39
2022-08-17T03:41:18.066Z,21.38
2022-08-17T03:43:22.126Z,21.36
2022-08-17T03:45:43.984Z,21.33
2022-08-17T03:48:04.224Z,21.31
2022-08-17T03:50:26.157Z,21.25
2022-08-17T03:52:46.646Z,21.22
2022-08-17T03:55:19.481Z,21.20
2022-08-17T03:57:37.382Z,21.15
2022-08-17T03:59:40.874Z,21.14
2022-08-17T04:01:45.030Z,21.13
2022-08-17T04:03:47.978Z,21.11
2022-08-17T04:05:49.491Z,21.10
2022-08-17T04:07:51.914Z,21.07
2022-08-17T04:09:54.601Z,21.07
2022-08-17T04:11:57.344Z,21.06
2022-08-17T04:14:05.812Z,21.04
2022-08-17T04:16:07.702Z,21.04
2022-08-17T04:18:11.030Z,21.03
2022-08-17T04:20:15.738Z,21.02
2022-08-17T04:22:30.508Z,21.01
2022-08-17T04:24:35.111Z,21.00
2022-08-17T04:26:53.422Z,21.01
2022-08-17T04:28:56.569Z,20.99
2022-08-17T04:30:59.038Z,20.99
2022-08-17T04:33:19.264Z,20.99
2022-08-17T04:35:23.961Z,21.00
2022-08-17T04:37:25.576Z,20.98
2022-08-17T04:39:28.977Z,21.00
2022-08-17T04:41:49.121Z,21.00
2022-08-17T04:43:55.938Z,21.00
2022-08-17T04:46:00.620Z,20.99
2022-08-17T04:48:02.302Z,21.00
2022-08-17T04:50:04.388Z,20.99
2022-08-17T04:52:06.009Z,21.00
2022-08-17T04:54:14.446Z,21.01
2022-08-17T04:56:18.931Z,21.02
2022-08-17T04:58:22.070Z,21.03
2022-08-17T05:00:25.764Z,21.03
2022-08-17T05:02:27.343Z,21.03
2022-08-17T05:04:34.781Z,21.04
2022-08-17T05:06:37.236Z,21.06
2022-08-17T05:08:39.558Z,21.06
2022-08-17T05:10:45.579Z,21.08
2022-08-17T05:12:47.478Z,21.10
2022-08-17T05:14:49.097Z,21.11
2022-08-17T05:16:51.172Z,21.14
2022-08-17T05:18:53.834Z,21.16
2022-08-17T05:20:56.407Z,21.19
2022-08-17T05:23:01.473Z,21.21
2022-08-17T05:25:03.131Z,21.23
2022-08-17T05:27:06.159Z,21.27
2022-08-17T05:29:08.347Z,21.34
2022-08-17T05:31:10.921Z,21.36
2022-08-17T05:33:21.762Z,21.40
2022-08-17T05:35:24.594Z,21.43
2022-08-17T05:37:26.317Z,21.44
2022-08-17T05:39:27.962Z,21.48
2022-08-17T05:41:29.514Z,21.50
2022-08-17T05:43:33.975Z,21.52
2022-08-17T05:45:54.866Z,21.56
2022-08-17T05:47:57.994Z,21.59
2022-08-17T05:50:01.537Z,21.62
2022-08-17T05:52:19.783Z,21.65
2022-08-17T05:54:36.076Z,21.68
2022-08-17T05:56:43.874Z,21.72
2022-08-17T05:58:59.670Z,21.76
2022-08-17T06:01:35.555Z,21.82
2022-08-17T06:03:54.496Z,21.88
2022-08-17T06:06:12.903Z,21.96
2022-08-17T06:08:45.585Z,22.05
2022-08-17T06:11:10.584Z,22.14
2022-08-17T06:13:31.613Z,22.25
2022-08-17T06:15:56.733Z,22.39
2022-08-17T06:18:06.122Z,22.53
2022-08-17T06:20:11.736Z,22.66
2022-08-17T06:22:16.606Z,22.79
2022-08-17T06:24:37.431Z,22.91
2022-08-17T06:26:43.397Z,23.07
2022-08-17T06:28:59.132Z,23.18
2022-08-17T06:31:08.290Z,23.29
2022-08-17T06:33:21.033Z,23.42
2022-08-17T06:35:35.114Z,23.55
2022-08-17T06:37:42.424Z,23.73
2022-08-17T06:40:16.685Z,23.90
2022-08-17T06:43:05.701Z,24.10
2022-08-17T06:45:15.338Z,24.29
2022-08-17T06:47:28.411Z,24.44
2022-08-17T06:49:40.568Z,24.58
2022-08-17T06:51:47.930Z,24.74
2022-08-17T06:54:11.450Z,24.90
2022-08-17T06:56:24.366Z,25.05
2022-08-17T06:58:46.602Z,25.22
2022-08-17T07:00:55.371Z,25.38
2022-08-17T07:03:31.727Z,25.52
2022-08-17T07:06:13.308Z,25.69
2022-08-17T07:08:35.057Z,25.86
2022-08-17T07:10:47.255Z,26.00
2022-08-17T07:12:51.947Z,26.12
2022-08-17T07:15:04.496Z,26.25
2022-08-17T07:17:13.704Z,26.38
2022-08-17T07:19:18.397Z,26.49
2022-08-17T07:21:26.760Z,26.60
2022-08-17T07:24:26.330Z,26.71
2022-08-17T07:26:31.740Z,26.86
2022-08-17T07:28:35.503Z,26.96
2022-08-17T07:30:49.020Z,27.06
2022-08-17T07:32:59.046Z,27.18
2022-08-17T07:35:11.327Z,27.29
2022-08-17T07:37:19.212Z,27.39
2022-08-17T07:39:27.370Z,27.52
2022-08-17T07:41:57.241Z,27.64
2022-08-17T07:43:57.132Z,27.79
2022-08-17T07:46:21.040Z,27.89
2022-08-17T07:48:26.188Z,28.04
2022-08-17T07:50:29.624Z,28.18
2022-08-17T07:52:50.797Z,28.28
2022-08-17T07:54:53.149Z,28.41
2022-08-17T07:56:56.610Z,28.52
2022-08-17T07:59:12.517Z,28.62
2022-08-17T08:01:18.258Z,28.75
2022-08-17T08:03:27.376Z,28.89
2022-08-17T08:05:49.439Z,29.03
2022-08-17T08:07:55.178Z,29.19
2022-08-17T08:09:59.581Z,29.34
2022-08-17T08:12:21.586Z,29.50
2022-08-17T08:14:36.792Z,29.67
2022-08-17T08:16:38.404Z,29.83
2022-08-17T08:18:55.592Z,29.97
2022-08-17T08:21:04.892Z,30.15
2022-08-17T08:23:16.453Z,30.31
2022-08-17T08:25:25.416Z,30.48
2022-08-17T08:27:45.786Z,30.63
2022-08-17T08:30:10.142Z,30.84
2022-08-17T08:32:33.359Z,31.02
2022-08-17T08:34:47.415Z,31.20
2022-08-17T08:37:17.125Z,31.35
2022-08-17T08:39:58.754Z,31.52
2022-08-17T08:42:13.078Z,31.69
2022-08-17T08:44:59.899Z,31.83
2022-08-17T08:47:35.493Z,32.03
2022-08-17T08:50:04.787Z,32.19
2022-08-17T08:52:30.981Z,32.37
2022-08-17T08:54:48.070Z,32.54
2022-08-17T08:57:22.160Z,32.73
2022-08-17T08:59:57.718Z,32.93
2022-08-17T09:02:12.029Z,33.12
2022-08-17T09:05:02.611Z,33.30
2022-08-17T09:06:59.769Z,33.48
2022-08-17T09:09:10.425Z,33.63
2022-08-17T09:12:02.339Z,33.77
2022-08-17T09:14:28.344Z,33.95
2022-08-17T09:16:45.498Z,34.10
2022-08-17T09:19:00.698Z,34.23
2022-08-17T09:21:21.558Z,34.36
2022-08-17T09:23:59.772Z,34.47
2022-08-17T09:26:16.259Z,34.63
2022-08-17T09:28:20.982Z,34.78
2022-08-17T09:30:23.649Z,34.91
2022-08-17T09:32:38.070Z,35.08
2022-08-17T09:35:04.265Z,35.25
2022-08-17T09:37:18.183Z,35.40
2022-08-17T09:39:43.193Z,35.56
2022-08-17T09:42:05.196Z,35.72
2022-08-17T09:44:38.335Z,35.89
2022-08-17T09:46:51.569Z,36.01
2022-08-17T09:49:05.919Z,36.15
2022-08-17T09:51:26.317Z,36.29
2022-08-17T09:53:31.756Z,36.41
2022-08-17T09:55:47.839Z,36.51
2022-08-17T09:58:07.738Z,36.61
2022-08-17T10:00:16.673Z,36.74
2022-08-17T10:02:21.457Z,36.86
2022-08-17T10:04:38.511Z,36.96
2022-08-17T10:06:58.942Z,37.08
2022-08-17T10:09:40.515Z,37.19
2022-08-17T10:12:09.209Z,37.26
2022-08-17T10:14:36.570Z,37.30
2022-08-17T10:16:52.175Z,37.32
2022-08-17T10:19:18.195Z,37.35
2022-08-17T10:21:39.448Z,37.40
2022-08-17T10:24:02.571Z,37.46
2022-08-17T10:26:13.788Z,37.52
2022-08-17T10:28:22.809Z,37.63
2022-08-17T10:30:32.894Z,37.71
2022-08-17T10:32:55.842Z,37.82
2022-08-17T10:35:09.549Z,37.96
2022-08-17T10:37:20.091Z,38.07
2022-08-17T10:39:51.972Z,38.19
2022-08-17T10:42:00.581Z,38.27
2022-08-17T10:44:38.659Z,38.36
2022-08-17T10:46:54.339Z,38.44
2022-08-17T10:49:16.614Z,38.45
2022-08-17T10:51:38.026Z,38.45
2022-08-17T10:53:43.357Z,38.46
2022-08-17T10:56:13.965Z,38.44
2022-08-17T10:58:22.169Z,38.42
2022-08-17T11:00:29.747Z,38.40
2022-08-17T11:02:51.837Z,38.37
2022-08-17T11:05:16.394Z,38.31
2022-08-17T11:07:43.770Z,38.25
2022-08-17T11:10:00.520Z,38.18
2022-08-17T11:12:30.639Z,38.11
2022-08-17T11:14:41.217Z,38.04
2022-08-17T11:17:01.121Z,37.98
2022-08-17T11:19:27.097Z,37.91
2022-08-17T11:22:01.670Z,37.93
2022-08-17T11:24:16.545Z,37.99
2022-08-17T11:26:27.029Z,38.06
2022-08-17T11:28:35.854Z,38.15
2022-08-17T11:30:49.034Z,38.22
2022-08-17T11:32:54.570Z,38.32
2022-08-17T11:35:21.245Z,38.37
2022-08-17T11:37:41.848Z,38.46
2022-08-17T11:39:51.831Z,38.56
2022-08-17T11:42:16.966Z,38.67
2022-08-17T11:44:37.608Z,38.78
2022-08-17T11:47:33.559Z,38.88
2022-08-17T11:50:15.852Z,38.95
2022-08-17T11:52:38.399Z,38.99
2022-08-17T11:54:47.623Z,39.04
2022-08-17T11:56:51.206Z,39.09
2022-08-17T11:58:52.669Z,39.13
2022-08-17T12:00:58.260Z,39.20
2022-08-17T12:03:31.984Z,39.26
2022-08-17T12:05:35.054Z,39.34
2022-08-17T12:07:46.386Z,39.41
2022-08-17T12:09:50.842Z,39.48
2022-08-17T12:12:12.361Z,39.54
2022-08-17T12:14:29.523Z,39.59
2022-08-17T12:16:44.370Z,39.66
2022-08-17T12:18:58.995Z,39.74
2022-08-17T12:21:28.967Z,39.83
2022-08-17T12:23:47.322Z,39.90
2022-08-17T12:26:10.106Z,39.91
2022-08-17T12:28:30.982Z,39.91
2022-08-17T12:30:32.782Z,39.87
2022-08-17T12:32:36.015Z,39.82
2022-08-17T12:34:42.684Z,39.74
2022-08-17T12:36:45.273Z,39.67
2022-08-17T12:38:57.139Z,39.60
2022-08-17T12:40:59.823Z,39.54
2022-08-17T12:43:07.698Z,39.45
2022-08-17T12:45:36.089Z,39.33
2022-08-17T12:47:37.912Z,39.26
2022-08-17T12:49:42.607Z,39.18
2022-08-17T12:51:47.279Z,39.09
2022-08-17T12:53:55.063Z,38.99
2022-08-17T12:55:59.656Z,38.92
2022-08-17T12:58:02.214Z,38.83
2022-08-17T13:00:22.108Z,38.73
2022-08-17T13:02:31.820Z,38.64
2022-08-17T13:04:33.622Z,38.57
2022-08-17T13:06:36.939Z,38.50
2022-08-17T13:08:45.204Z,38.41
2022-08-17T13:11:03.464Z,38.32
2022-08-17T13:13:19.496Z,38.25
2022-08-17T13:15:25.008Z,38.21
2022-08-17T13:17:33.325Z,38.13
2022-08-17T13:19:40.313Z,38.07
2022-08-17T13:21:49.722Z,38.01
2022-08-17T13:23:57.311Z,37.95
2022-08-17T13:26:06.959Z,37.87
2022-08-17T13:28:18.431Z,37.81
2022-08-17T13:30:33.445Z,37.72
2022-08-17T13:32:44.117Z,37.65
2022-08-17T13:35:14.363Z,37.57
2022-08-17T13:37:42.641Z,37.49
2022-08-17T13:39:45.168Z,37.39
2022-08-17T13:41:48.834Z,37.33
2022-08-17T13:43:50.751Z,37.25
2022-08-17T13:45:53.263Z,37.17
2022-08-17T13:48:20.652Z,37.07
2022-08-17T13:50:22.474Z,37.02
2022-08-17T13:52:38.015Z,36.95
2022-08-17T13:54:40.877Z,36.89
2022-08-17T13:57:02.249Z,36.84
2022-08-17T13:59:11.097Z,36.78
2022-08-17T14:01:36.626Z,36.69
2022-08-17T14:03:38.227Z,36.63
2022-08-17T14:05:39.749Z,36.60
2022-08-17T14:07:41.623Z,36.55
2022-08-17T14:09:48.310Z,36.53
2022-08-17T14:11:51.691Z,36.51
2022-08-17T14:13:53.278Z,36.51
2022-08-17T14:15:56.816Z,36.54
2022-08-17T14:17:58.552Z,36.54
2022-08-17T14:20:00.266Z,36.56
2022-08-17T14:22:03.042Z,36.58
2022-08-17T14:24:05.246Z,36.59
2022-08-17T14:26:06.938Z,36.61
2022-08-17T14:28:08.436Z,36.62
2022-08-17T14:30:10.586Z,36.61
2022-08-17T14:32:20.198Z,36.60
2022-08-17T14:34:24.067Z,36.61
2022-08-17T14:36:26.258Z,36.60
2022-08-17T14:38:28.010Z,36.60
2022-08-17T14:40:30.353Z,36.60
2022-08-17T14:42:35.108Z,36.60
2022-08-17T14:44:39.878Z,36.60
2022-08-17T14:46:43.609Z,36.59
2022-08-17T14:48:45.389Z,36.56
2022-08-17T14:50:46.932Z,36.52
2022-08-17T14:52:49.303Z,36.48
2022-08-17T14:54:52.611Z,36.45
2022-08-17T14:57:22.472Z,36.41
2022-08-17T14:59:16.998Z,36.36
2022-08-17T15:01:21.019Z,36.30
2022-08-17T15:03:23.472Z,36.25
2022-08-17T15:05:29.216Z,36.19
2022-08-17T15:07:31.615Z,36.15
2022-08-17T15:09:35.785Z,36.12
2022-08-17T15:11:38.570Z,36.07
2022-08-17T15:13:52.699Z,36.06
2022-08-17T15:15:55.082Z,36.01
2022-08-17T15:17:58.245Z,36.02
2022-08-17T15:20:00.339Z,36.02
2022-08-17T15:22:03.115Z,36.01
2022-08-17T15:24:06.059Z,35.98
2022-08-17T15:26:07.777Z,35.95
2022-08-17T15:28:09.633Z,35.92
2022-08-17T15:30:11.778Z,35.89
2022-08-17T15:32:35.283Z,35.84
2022-08-17T15:34:37.486Z,35.82
2022-08-17T15:36:41.348Z,35.77
2022-08-17T15:38:51.507Z,35.74
2022-08-17T15:40:53.798Z,35.70
2022-08-17T15:42:55.528Z,35.65
2022-08-17T15:44:57.576Z,35.63
2022-08-17T15:46:59.095Z,35.57
2022-08-17T15:49:00.859Z,35.51
2022-08-17T15:51:02.611Z,35.48
2022-08-17T15:53:04.951Z,35.44
2022-08-17T15:55:10.938Z,35.40
2022-08-17T15:57:12.406Z,35.36
2022-08-17T15:59:14.001Z,35.34
2022-08-17T16:02:24.763Z,35.31
2022-08-17T16:04:01.591Z,35.26
2022-08-17T16:06:02.876Z,35.23
2022-08-17T16:08:04.632Z,35.18
2022-08-17T16:10:08.971Z,35.13
2022-08-17T16:12:11.821Z,35.12
2022-08-17T16:14:14.058Z,35.08
2022-08-17T16:16:16.896Z,35.06
2022-08-17T16:18:18.496Z,35.03
2022-08-17T16:20:21.110Z,35.00
2022-08-17T16:22:38.209Z,34.95
2022-08-17T16:24:56.808Z,34.94
2022-08-17T16:26:59.189Z,34.91
2022-08-17T16:29:04.053Z,34.86
2022-08-17T16:31:08.234Z,34.82
2022-08-17T16:33:12.062Z,34.82
2022-08-17T16:35:18.229Z,34.80
2022-08-17T16:37:19.744Z,34.79
2022-08-17T16:39:25.563Z,34.77
2022-08-17T16:41:44.342Z,34.77
2022-08-17T16:43:47.146Z,34.74
2022-08-17T16:45:52.091Z,34.73
2022-08-17T16:47:54.798Z,34.71
2022-08-17T16:49:56.516Z,34.67
2022-08-17T16:52:03.139Z,34.67
2022-08-17T16:54:06.632Z,34.65
2022-08-17T16:56:08.233Z,34.62
2022-08-17T16:58:10.091Z,34.62
2022-08-17T17:00:13.785Z,34.60
2022-08-17T17:02:23.428Z,34.54
2022-08-17T17:04:26.665Z,34.51
2022-08-17T17:06:40.028Z,34.47
2022-08-17T17:08:48.502Z,34.45
2022-08-17T17:10:52.759Z,34.42
2022-08-17T17:13:03.730Z,34.41
2022-08-17T17:15:07.526Z,34.38
2022-08-17T17:17:32.664Z,34.33
2022-08-17T17:19:41.258Z,34.32
2022-08-17T17:22:04.954Z,34.27
2022-08-17T17:24:12.930Z,34.23
2022-08-17T17:26:27.332Z,34.19
2022-08-17T17:29:04.418Z,34.15
2022-08-17T17:31:13.793Z,34.12
2022-08-17T17:33:19.719Z,34.08
2022-08-17T17:35:31.743Z,34.05
2022-08-17T17:37:36.532Z,34.00
2022-08-17T17:39:49.760Z,33.96
2022-08-17T17:41:54.334Z,33.90
2022-08-17T17:44:08.529Z,33.85
2022-08-17T17:46:27.548Z,33.79
2022-08-17T17:48:30.900Z,33.74
2022-08-17T17:50:42.752Z,33.68
2022-08-17T17:53:04.620Z,33.62
2022-08-17T17:55:06.211Z,33.54
2022-08-17T17:57:36.342Z,33.45
2022-08-17T17:59:44.744Z,33.36
2022-08-17T18:02:01.126Z,33.30
2022-08-17T18:04:25.948Z,33.25
2022-08-17T18:07:10.063Z,33.20
2022-08-17T18:09:33.886Z,33.17
2022-08-17T18:11:51.357Z,33.12
2022-08-17T18:14:16.423Z,33.02
2022-08-17T18:16:18.365Z,32.98
2022-08-17T18:18:38.778Z,32.93
2022-08-17T18:20:53.645Z,32.88
2022-08-17T18:22:57.739Z,32.84
2022-08-17T18:24:59.580Z,32.81
2022-08-17T18:27:08.370Z,32.77
2022-08-17T18:29:15.963Z,32.70
2022-08-17T18:31:19.754Z,32.67
2022-08-17T18:33:26.437Z,32.63
2022-08-17T18:35:31.975Z,32.60
2022-08-17T18:37:48.522Z,32.52
2022-08-17T18:39:50.117Z,32.47
2022-08-17T18:41:55.354Z,32.40
2022-08-17T18:44:03.189Z,32.34
2022-08-17T18:46:28.948Z,32.23
2022-08-17T18:48:49.531Z,32.19
2022-08-17T18:50:53.652Z,32.12
2022-08-17T18:53:35.178Z,32.03
2022-08-17T18:55:38.042Z,31.98
2022-08-17T18:57:46.603Z,31.93
2022-08-17T18:59:48.553Z,31.86
2022-08-17T19:01:58.474Z,31.79
2022-08-17T19:04:00.866Z,31.73
2022-08-17T19:06:29.962Z,31.68
2022-08-17T19:08:31.654Z,31.63
2022-08-17T19:10:46.651Z,31.57
2022-08-17T19:13:01.628Z,31.49
2022-08-17T19:15:20.872Z,31.41
2022-08-17T19:17:33.351Z,31.35
2022-08-17T19:19:45.878Z,31.30
2022-08-17T19:21:54.862Z,31.24
2022-08-17T19:24:12.175Z,31.18
2022-08-17T19:26:54.600Z,31.11
2022-08-17T19:28:57.303Z,31.03
2022-08-17T19:31:06.985Z,30.96
2022-08-17T19:33:08.726Z,30.91
2022-08-17T19:35:17.105Z,30.84
2022-08-17T19:37:34.631Z,30.76
2022-08-17T19:39:50.714Z,30.67
2022-08-17T19:42:15.830Z,30.57
2022-08-17T19:44:49.245Z,30.49
2022-08-17T19:47:01.824Z,30.43
2022-08-17T19:49:18.527Z,30.36
2022-08-17T19:51:30.901Z,30.28
2022-08-17T19:54:05.467Z,30.21
2022-08-17T19:56:40.172Z,30.13
2022-08-17T19:59:09.263Z,30.04
2022-08-17T20:01:19.791Z,29.99
2022-08-17T20:03:38.538Z,29.90
2022-08-17T20:06:11.881Z,29.84
2022-08-17T20:08:23.592Z,29.75
2022-08-17T20:10:48.055Z,29.67
2022-08-17T20:13:03.150Z,29.61
2022-08-17T20:15:11.126Z,29.52
2022-08-17T20:17:13.158Z,29.49
2022-08-17T20:19:28.073Z,29.43
2022-08-17T20:21:55.959Z,29.35
2022-08-17T20:24:20.171Z,29.28
2022-08-17T20:26:30.451Z,29.22
2022-08-17T20:28:35.517Z,29.17
2022-08-17T20:30:40.093Z,29.12
2022-08-17T20:32:55.263Z,29.05
2022-08-17T20:35:26.335Z,28.97
2022-08-17T20:37:31.671Z,28.91
2022-08-17T20:39:56.667Z,28.85
2022-08-17T20:42:12.549Z,28.78
2022-08-17T20:44:32.573Z,28.72
2022-08-17T20:46:36.845Z,28.68
2022-08-17T20:48:46.177Z,28.63
2022-08-17T20:50:56.104Z,28.58
2022-08-17T20:53:01.028Z,28.55
2022-08-17T20:55:04.401Z,28.50
2022-08-17T20:57:09.185Z,28.47
2022-08-17T20:59:30.360Z,28.42
2022-08-17T21:01:40.081Z,28.37
2022-08-17T21:03:50.415Z,28.33
2022-08-17T21:06:15.335Z,28.28
2022-08-17T21:08:29.532Z,28.25
2022-08-17T21:10:35.781Z,28.21
2022-08-17T21:12:40.478Z,28.17
2022-08-17T21:15:00.828Z,28.15
2022-08-17T21:17:39.102Z,28.10
2022-08-17T21:20:17.399Z,28.05
2022-08-17T21:22:31.045Z,28.00
2022-08-17T21:24:42.466Z,27.97
2022-08-17T21:26:55.316Z,27.93
2022-08-17T21:29:30.905Z,27.89
2022-08-17T21:31:37.224Z,27.84
2022-08-17T21:33:39.926Z,27.80
2022-08-17T21:36:15.198Z,27.74
2022-08-17T21:38:21.185Z,27.73
2022-08-17T21:40:30.066Z,27.68
2022-08-17T21:42:35.818Z,27.66
2022-08-17T21:44:41.661Z,27.61
2022-08-17T21:46:46.620Z,27.57
2022-08-17T21:48:50.440Z,27.53
2022-08-17T21:50:59.362Z,27.48
2022-08-17T21:53:03.110Z,27.42
2022-08-17T21:55:05.429Z,27.37
2022-08-17T21:57:16.639Z,27.34
2022-08-17T21:59:19.386Z,27.29
2022-08-17T22:01:31.877Z,27.24
2022-08-17T22:03:33.571Z,27.21
2022-08-17T22:05:38.315Z,27.18
2022-08-17T22:07:46.888Z,27.13
2022-08-17T22:09:50.266Z,27.10
2022-08-17T22:12:09.060Z,27.06
2022-08-17T22:14:22.141Z,27.02
2022-08-17T22:16:28.401Z,27.01
2022-08-17T22:18:32.098Z,26.98
2022-08-17T22:20:33.884Z,26.96
2022-08-17T22:22:55.847Z,26.95
2022-08-17T22:25:06.718Z,26.91
2022-08-17T22:27:11.456Z,26.88
2022-08-17T22:29:54.354Z,26.84
2022-08-17T22:31:59.359Z,26.81
2022-08-17T22:34:00.837Z,26.81
2022-08-17T22:36:09.318Z,26.78
2022-08-17T22:38:17.881Z,26.76
2022-08-17T22:40:31.732Z,26.73
2022-08-17T22:42:44.157Z,26.73
2022-08-17T22:44:48.550Z,26.73
2022-08-17T22:46:56.187Z,26.71
2022-08-17T22:48:59.454Z,26.71
2022-08-17T22:51:17.536Z,26.69
2022-08-17T22:53:40.850Z,26.69
2022-08-17T22:56:15.523Z,26.67
2022-08-17T22:58:42.856Z,26.67
2022-08-17T23:00:47.267Z,26.66
2022-08-17T23:03:05.603Z,26.64
2022-08-17T23:05:13.088Z,26.64
2022-08-17T23:07:14.929Z,26.64
2022-08-17T23:09:16.701Z,26.63
2022-08-17T23:11:18.334Z,26.63
2022-08-17T23:13:21.418Z,26.63
2022-08-17T23:15:25.219Z,26.62
2022-08-17T23:17:28.779Z,26.61
2022-08-17T23:19:33.336Z,26.61
2022-08-17T23:21:37.154Z,26.61
2022-08-17T23:23:39.241Z,26.60
2022-08-17T23:25:44.622Z,26.59
2022-08-17T23:27:48.725Z,26.56
2022-08-17T23:29:50.349Z,26.56
2022-08-17T23:31:52.717Z,26.56
2022-08-17T23:33:54.356Z,26.55
2022-08-17T23:35:58.944Z,26.52
2022-08-17T23:38:02.277Z,26.51
2022-08-17T23:40:05.223Z,26.51
2022-08-17T23:42:09.365Z,26.48
2022-08-17T23:44:12.484Z,26.48
2022-08-17T23:46:14.643Z,26.47
2022-08-17T23:48:16.249Z,26.45
2022-08-17T23:50:38.291Z,26.43
2022-08-17T23:52:42.580Z,26.43
2022-08-17T23:54:48.519Z,26.41
2022-08-17T23:56:50.480Z,26.40
2022-08-17T23:58:54.842Z,26.40
